Time;durP1;ratioP1;P1;durP2;ratioP2;P2;SDS_P1;SDS_P2;PMS_P1;PMS_P2;Temp;Humidity;BMP_temperature;BMP_pressure;BME280_temperature;BME280_humidity;BME280_pressure;Samples;Min_cycle;Max_cycle;Signal;HPM_P1;HPM_P2
2022/09/15 00:00:53;;;;;;;5.32;3.05;;;15.50;99.10;;;;;;5058238;28;20247;-81
2022/09/15 00:03:21;;;;;;;5.40;2.80;;;15.40;99.20;;;;;;5064275;28;20027;-81
2022/09/15 00:05:46;;;;;;;6.33;2.93;;;15.40;99.30;;;;;;5040840;28;20178;-81
2022/09/15 00:08:13;;;;;;;5.43;2.90;;;15.40;99.30;;;;;;5073996;28;20231;-81
2022/09/15 00:10:49;;;;;;;5.43;3.03;;;15.40;99.20;;;;;;5054853;28;20481;-81
2022/09/15 00:13:15;;;;;;;5.65;3.20;;;15.40;99.00;;;;;;5067972;28;20108;-81
2022/09/15 00:15:41;;;;;;;5.87;3.10;;;15.40;98.90;;;;;;5057527;28;20485;-81
2022/09/15 00:18:07;;;;;;;4.75;2.80;;;15.40;99.10;;;;;;5062558;28;20020;-80
2022/09/15 00:20:33;;;;;;;5.53;3.20;;;15.40;98.80;;;;;;5074756;28;20027;-80
2022/09/15 00:22:59;;;;;;;6.47;3.23;;;15.30;98.80;;;;;;5047324;28;20025;-80
2022/09/15 00:25:24;;;;;;;6.05;3.17;;;15.30;98.70;;;;;;5064355;28;20320;-81
2022/09/15 00:27:50;;;;;;;5.70;3.27;;;15.30;98.70;;;;;;5048988;28;20324;-80
2022/09/15 00:30:16;;;;;;;5.10;3.17;;;15.30;98.70;;;;;;5060012;28;20028;-80
2022/09/15 00:32:41;;;;;;;4.82;2.88;;;15.20;98.60;;;;;;5042808;28;20017;-81
2022/09/15 00:35:07;;;;;;;5.57;3.30;;;15.20;98.60;;;;;;5050131;28;20020;-81
2022/09/15 00:37:33;;;;;;;5.07;2.78;;;15.20;98.50;;;;;;5072615;28;20077;-81
2022/09/15 00:39:58;;;;;;;4.28;2.67;;;15.20;98.40;;;;;;5073493;28;20457;-80
2022/09/15 00:42:24;;;;;;;6.57;3.33;;;15.10;98.30;;;;;;5060523;28;20274;-80
2022/09/15 00:44:54;;;;;;;5.77;3.07;;;15.10;98.30;;;;;;5072886;28;20389;-80
2022/09/15 00:47:30;;;;;;;6.18;3.40;;;15.10;98.20;;;;;;5063299;28;20594;-80
2022/09/15 00:50:07;;;;;;;5.57;3.05;;;15.00;98.20;;;;;;5038875;28;20025;-80
2022/09/15 00:52:44;;;;;;;5.70;3.13;;;15.00;98.30;;;;;;5055946;28;20107;-80
2022/09/15 00:55:30;;;;;;;4.95;3.05;;;15.00;98.30;;;;;;5075935;28;20023;-81
2022/09/15 00:58:10;;;;;;;4.83;2.93;;;14.90;98.30;;;;;;5045946;28;20031;-81
2022/09/15 01:00:40;;;;;;;5.50;2.95;;;14.90;98.30;;;;;;5072267;28;20047;-80
2022/09/15 01:03:06;;;;;;;5.28;3.05;;;14.90;98.40;;;;;;5042826;28;20025;-81
2022/09/15 01:05:36;;;;;;;5.18;2.78;;;14.90;98.50;;;;;;5067723;28;20043;-81
2022/09/15 01:08:07;;;;;;;5.07;2.77;;;14.80;98.50;;;;;;5060041;28;20365;-81
2022/09/15 01:10:37;;;;;;;5.80;2.92;;;14.90;98.50;;;;;;5074153;28;20059;-81
2022/09/15 01:13:05;;;;;;;6.00;3.10;;;14.80;98.40;;;;;;5062349;28;20315;-80
2022/09/15 01:16:18;;;;;;;5.65;3.03;;;14.80;98.70;;;;;;5067034;28;20016;-81
2022/09/15 01:19:11;;;;;;;5.57;3.20;;;14.80;98.70;;;;;;5007336;28;20553;-81
2022/09/15 01:21:46;;;;;;;6.67;3.33;;;14.80;99.00;;;;;;5055911;28;20039;-81
2022/09/15 01:24:24;;;;;;;7.22;3.03;;;14.80;99.20;;;;;;5061997;28;20051;-80
2022/09/15 01:27:24;;;;;;;7.05;3.20;;;14.80;99.50;;;;;;5077247;28;20040;-80
2022/09/15 01:30:01;;;;;;;4.63;2.92;;;14.90;99.70;;;;;;5040915;28;20035;-81
2022/09/15 01:33:04;;;;;;;6.50;3.45;;;14.90;99.90;;;;;;5070520;28;20541;-81
2022/09/15 01:35:52;;;;;;;5.57;3.17;;;14.90;99.90;;;;;;5072219;28;20590;-81
2022/09/15 01:38:40;;;;;;;5.88;3.20;;;15.00;99.90;;;;;;5066527;27;20078;-81
2022/09/15 01:41:16;;;;;;;5.88;3.35;;;15.00;99.90;;;;;;5056654;28;20071;-81
2022/09/15 01:44:09;;;;;;;6.72;3.60;;;15.10;99.90;;;;;;5048724;28;20107;-81
2022/09/15 01:46:47;;;;;;;6.05;3.35;;;15.10;99.90;;;;;;5036930;28;20040;-81
2022/09/15 01:49:20;;;;;;;6.00;3.40;;;15.20;99.90;;;;;;5054709;28;20832;-81
2022/09/15 01:51:49;;;;;;;8.20;3.88;;;15.20;99.90;;;;;;5069607;28;20380;-81
2022/09/15 01:54:18;;;;;;;7.55;3.97;;;15.30;99.90;;;;;;5050474;28;20243;-81
2022/09/15 01:56:43;;;;;;;6.97;4.32;;;15.30;99.90;;;;;;5056198;28;20052;-81
2022/09/15 01:59:10;;;;;;;7.90;4.40;;;15.40;99.90;;;;;;5038281;28;20071;-81
2022/09/15 02:01:50;;;;;;;9.05;4.70;;;15.40;99.90;;;;;;5074462;28;20164;-81
2022/09/15 02:04:35;;;;;;;8.35;4.70;;;15.40;99.90;;;;;;5054288;28;20146;-81
2022/09/15 02:07:24;;;;;;;8.05;4.28;;;15.40;99.90;;;;;;5053639;28;20024;-81
2022/09/15 02:09:53;;;;;;;8.80;4.73;;;15.40;99.90;;;;;;5056896;28;20101;-81
2022/09/15 02:12:47;;;;;;;11.35;5.25;;;15.50;99.90;;;;;;5046404;28;20277;-81
2022/09/15 02:15:41;;;;;;;8.93;4.63;;;15.50;99.90;;;;;;5052309;28;20293;-81
2022/09/15 02:18:07;;;;;;;8.93;4.70;;;15.60;99.90;;;;;;5071656;28;20024;-81
2022/09/15 02:20:37;;;;;;;9.32;5.07;;;15.60;99.90;;;;;;5051794;28;20111;-81
2022/09/15 02:23:19;;;;;;;9.50;4.90;;;15.60;99.90;;;;;;5062821;28;20043;-81
2022/09/15 02:25:50;;;;;;;9.73;4.75;;;15.60;99.90;;;;;;5064600;28;20016;-80
2022/09/15 02:28:20;;;;;;;9.15;4.95;;;15.70;99.90;;;;;;5062797;28;20047;-81
2022/09/15 02:30:46;;;;;;;9.45;5.07;;;15.70;99.90;;;;;;5051010;28;20468;-81
2022/09/15 02:33:18;;;;;;;10.95;5.50;;;15.70;99.90;;;;;;5056711;28;20125;-81
2022/09/15 02:35:45;;;;;;;10.20;5.10;;;15.80;99.90;;;;;;5054444;28;20133;-81
2022/09/15 02:38:11;;;;;;;8.95;5.03;;;15.80;99.90;;;;;;5051768;28;20031;-81
2022/09/15 02:40:42;;;;;;;9.35;5.15;;;15.80;99.90;;;;;;5050088;28;20167;-81
2022/09/15 02:43:13;;;;;;;10.43;5.22;;;15.80;99.90;;;;;;5075969;28;20063;-81
2022/09/15 02:45:39;;;;;;;9.60;5.30;;;15.80;99.90;;;;;;5032861;28;20688;-80
2022/09/15 02:48:08;;;;;;;9.10;5.07;;;15.80;99.90;;;;;;5066333;28;20127;-81
2022/09/15 02:50:34;;;;;;;8.95;4.95;;;15.80;99.90;;;;;;5060605;28;21315;-81
2022/09/15 02:52:59;;;;;;;9.07;5.53;;;15.90;99.90;;;;;;5079598;28;20165;-81
2022/09/15 02:55:28;;;;;;;10.97;5.53;;;15.90;99.90;;;;;;5040141;28;20016;-81
2022/09/15 02:57:57;;;;;;;8.95;5.22;;;15.90;99.90;;;;;;5064538;28;20476;-81
2022/09/15 03:00:24;;;;;;;8.85;5.07;;;15.90;99.90;;;;;;5061041;28;20024;-81
2022/09/15 03:02:52;;;;;;;9.95;5.50;;;16.00;99.90;;;;;;5048682;28;20097;-81
2022/09/15 03:05:21;;;;;;;10.70;5.63;;;15.90;99.90;;;;;;5057608;28;20154;-81
2022/09/15 03:07:46;;;;;;;10.68;5.55;;;16.00;99.90;;;;;;5054341;28;20271;-81
2022/09/15 03:10:13;;;;;;;9.05;5.40;;;16.00;99.90;;;;;;5065079;28;20028;-81
2022/09/15 03:12:49;;;;;;;10.30;5.40;;;16.00;99.90;;;;;;5063006;28;20599;-81
2022/09/15 03:15:17;;;;;;;10.93;5.25;;;16.00;99.90;;;;;;5056424;28;20017;-81
2022/09/15 03:17:45;;;;;;;10.07;5.47;;;16.00;99.90;;;;;;5052513;28;20278;-81
2022/09/15 03:20:13;;;;;;;11.48;5.85;;;16.00;99.90;;;;;;5079269;28;20548;-81
2022/09/15 03:22:39;;;;;;;9.07;5.13;;;16.00;99.90;;;;;;5065586;28;20125;-81
2022/09/15 03:25:06;;;;;;;11.13;5.47;;;16.10;99.90;;;;;;5071083;28;20114;-81
2022/09/15 03:27:32;;;;;;;9.88;5.60;;;16.00;99.90;;;;;;5061884;28;20270;-81
2022/09/15 03:29:58;;;;;;;9.20;5.13;;;16.10;99.90;;;;;;5059509;28;20670;-81
2022/09/15 03:32:24;;;;;;;9.40;5.00;;;16.10;99.90;;;;;;5065566;28;20078;-81
2022/09/15 03:34:49;;;;;;;9.33;5.33;;;16.10;99.90;;;;;;5058169;28;20861;-81
2022/09/15 03:37:15;;;;;;;9.53;5.50;;;16.10;99.90;;;;;;5052070;28;20036;-81
2022/09/15 03:39:41;;;;;;;10.07;5.07;;;16.10;99.90;;;;;;5063091;28;20462;-81
2022/09/15 03:42:07;;;;;;;8.85;5.25;;;16.10;99.90;;;;;;5063210;28;20041;-81
2022/09/15 03:44:34;;;;;;;9.80;5.17;;;16.10;99.90;;;;;;5047166;28;20048;-81
2022/09/15 03:47:00;;;;;;;9.70;5.35;;;16.10;99.90;;;;;;5061618;28;20672;-81
2022/09/15 03:49:25;;;;;;;9.77;5.10;;;16.10;99.90;;;;;;5049251;28;20032;-81
2022/09/15 03:51:51;;;;;;;9.57;5.60;;;16.10;99.90;;;;;;5053145;28;20677;-81
2022/09/15 03:54:18;;;;;;;10.23;5.15;;;16.10;99.90;;;;;;5073869;28;20035;-81
2022/09/15 03:56:47;;;;;;;9.23;5.20;;;16.10;99.90;;;;;;5058084;28;20254;-81
2022/09/15 03:59:14;;;;;;;10.43;5.53;;;16.10;99.90;;;;;;5078746;28;20116;-81
2022/09/15 04:01:41;;;;;;;10.65;6.00;;;16.10;99.90;;;;;;5070465;28;20020;-81
2022/09/15 04:04:06;;;;;;;10.52;5.47;;;16.10;99.90;;;;;;5035762;28;20178;-81
2022/09/15 04:06:32;;;;;;;9.30;5.30;;;16.00;99.90;;;;;;5054418;28;20047;-81
2022/09/15 04:08:59;;;;;;;9.98;5.20;;;16.10;99.90;;;;;;5045318;28;20247;-81
2022/09/15 04:11:25;;;;;;;9.95;5.60;;;16.00;99.90;;;;;;5077183;28;20093;-81
2022/09/15 04:13:52;;;;;;;8.93;5.10;;;16.00;99.90;;;;;;5046993;28;20028;-81
2022/09/15 04:16:22;;;;;;;10.20;5.00;;;16.00;99.90;;;;;;5080317;28;20119;-81
2022/09/15 04:18:49;;;;;;;9.82;5.53;;;16.00;99.90;;;;;;5048982;28;20064;-80
2022/09/15 04:21:17;;;;;;;10.18;5.63;;;16.00;99.90;;;;;;5050924;28;20132;-81
2022/09/15 04:23:44;;;;;;;9.57;5.13;;;15.90;99.90;;;;;;5077713;28;20016;-81
2022/09/15 04:26:30;;;;;;;10.45;5.43;;;15.90;99.90;;;;;;5068527;28;20059;-81
2022/09/15 04:28:56;;;;;;;8.20;4.80;;;15.90;99.90;;;;;;5056517;28;20382;-81
2022/09/15 04:31:22;;;;;;;8.93;5.28;;;15.90;99.90;;;;;;5052318;28;20032;-81
2022/09/15 04:33:51;;;;;;;9.52;5.00;;;15.80;99.90;;;;;;5071964;28;20036;-81
2022/09/15 04:36:20;;;;;;;9.52;5.60;;;15.80;99.90;;;;;;5051597;28;20500;-81
2022/09/15 04:38:46;;;;;;;10.13;5.65;;;15.80;99.90;;;;;;5067374;28;20023;-80
2022/09/15 04:41:13;;;;;;;9.23;5.30;;;15.70;99.90;;;;;;5067526;28;20062;-80
2022/09/15 04:43:40;;;;;;;10.02;5.90;;;15.70;99.90;;;;;;5066685;28;20036;-81
2022/09/15 04:46:06;;;;;;;9.65;5.55;;;15.60;99.90;;;;;;5071871;28;20255;-81
2022/09/15 04:48:32;;;;;;;10.55;5.82;;;15.60;99.90;;;;;;5073090;28;20463;-81
2022/09/15 04:51:03;;;;;;;10.53;5.90;;;15.60;99.90;;;;;;5056566;28;20218;-81
2022/09/15 04:53:30;;;;;;;12.03;5.67;;;15.60;99.90;;;;;;5074644;28;20302;-81
2022/09/15 04:56:07;;;;;;;8.45;4.97;;;15.50;99.90;;;;;;5062912;28;20024;-81
2022/09/15 04:58:53;;;;;;;9.68;5.28;;;15.50;99.90;;;;;;5077430;28;20041;-81
2022/09/15 05:01:22;;;;;;;9.88;5.35;;;15.50;99.90;;;;;;5062256;28;20028;-80
2022/09/15 05:03:48;;;;;;;9.65;5.43;;;15.40;99.90;;;;;;5028862;28;20057;-81
2022/09/15 05:06:21;;;;;;;9.67;5.10;;;15.40;99.90;;;;;;5033523;28;20029;-81
2022/09/15 05:08:48;;;;;;;9.07;5.30;;;15.40;99.90;;;;;;5059913;28;20043;-81
2022/09/15 05:11:15;;;;;;;9.35;4.97;;;15.30;99.90;;;;;;5057308;28;20030;-81
2022/09/15 05:13:40;;;;;;;9.07;5.07;;;15.30;99.90;;;;;;5071276;28;20073;-81
2022/09/15 05:16:12;;;;;;;8.73;4.83;;;15.30;99.90;;;;;;5049898;28;20020;-81
2022/09/15 05:18:39;;;;;;;8.07;5.00;;;15.30;99.90;;;;;;5062322;28;20401;-81
2022/09/15 05:21:07;;;;;;;11.38;5.50;;;15.20;99.90;;;;;;5066244;28;20451;-81
2022/09/15 05:23:34;;;;;;;10.70;5.50;;;15.20;99.90;;;;;;5042772;28;20169;-81
2022/09/15 05:26:01;;;;;;;8.38;5.22;;;15.10;99.90;;;;;;5047393;28;20519;-80
2022/09/15 05:28:27;;;;;;;10.13;5.40;;;15.10;99.90;;;;;;5058637;28;20150;-80
2022/09/15 05:30:54;;;;;;;10.82;5.60;;;15.10;99.90;;;;;;5028642;28;20110;-81
2022/09/15 05:33:21;;;;;;;8.73;5.38;;;15.10;99.90;;;;;;5061380;28;20079;-80
2022/09/15 05:35:59;;;;;;;9.35;5.32;;;15.10;99.90;;;;;;5045074;28;20465;-80
2022/09/15 05:38:27;;;;;;;11.13;5.80;;;15.10;99.90;;;;;;5046268;28;20020;-80
2022/09/15 05:40:53;;;;;;;10.20;5.30;;;15.10;99.90;;;;;;5060109;28;20127;-80
2022/09/15 05:43:19;;;;;;;8.90;5.00;;;15.10;99.90;;;;;;5075157;28;20124;-80
2022/09/15 05:45:53;;;;;;;11.75;6.38;;;15.10;99.90;;;;;;5038635;28;20043;-80
2022/09/15 05:48:18;;;;;;;11.37;5.70;;;15.10;99.90;;;;;;5049050;28;20057;-80
2022/09/15 05:50:48;;;;;;;10.52;5.80;;;15.10;99.90;;;;;;5045380;28;20526;-80
2022/09/15 05:53:14;;;;;;;10.85;6.07;;;15.20;99.90;;;;;;5049175;28;20539;-80
2022/09/15 05:55:40;;;;;;;10.97;5.93;;;15.20;99.90;;;;;;5062101;28;20028;-81
2022/09/15 05:58:05;;;;;;;10.73;5.50;;;15.20;99.90;;;;;;5055165;28;20298;-80
2022/09/15 06:00:32;;;;;;;11.47;6.10;;;15.30;99.90;;;;;;5077367;28;20473;-81
2022/09/15 06:02:57;;;;;;;12.18;6.13;;;15.30;99.90;;;;;;5066085;28;20060;-81
2022/09/15 06:05:23;;;;;;;11.63;6.43;;;15.40;99.90;;;;;;5039086;28;20125;-80
2022/09/15 06:07:53;;;;;;;11.70;6.07;;;15.50;99.90;;;;;;5041638;28;20024;-80
2022/09/15 06:10:21;;;;;;;11.27;6.15;;;15.50;99.90;;;;;;5063951;28;20125;-81
2022/09/15 06:12:47;;;;;;;12.77;6.50;;;15.60;99.90;;;;;;5026211;28;20071;-81
2022/09/15 06:15:13;;;;;;;11.40;5.70;;;15.60;99.90;;;;;;5059272;28;20571;-81
2022/09/15 06:17:39;;;;;;;10.95;6.47;;;15.70;99.90;;;;;;5056985;28;20027;-84
2022/09/15 06:20:06;;;;;;;10.00;5.53;;;15.70;99.90;;;;;;5050272;28;20032;-83
2022/09/15 06:22:31;;;;;;;10.27;6.30;;;15.80;99.90;;;;;;5059036;28;20357;-84
2022/09/15 06:24:58;;;;;;;12.27;6.68;;;15.70;99.90;;;;;;5037688;28;20028;-84
2022/09/15 06:27:24;;;;;;;11.70;6.07;;;15.80;99.90;;;;;;5039807;28;20016;-83
2022/09/15 06:29:50;;;;;;;11.50;6.10;;;15.80;99.90;;;;;;5054454;28;20029;-83
2022/09/15 06:32:15;;;;;;;11.98;6.75;;;15.90;99.90;;;;;;5055150;28;20328;-80
2022/09/15 06:34:41;;;;;;;11.80;6.70;;;15.90;99.90;;;;;;5042056;28;20020;-81
2022/09/15 06:37:07;;;;;;;11.88;6.53;;;15.90;99.90;;;;;;5063840;28;20044;-81
2022/09/15 06:39:33;;;;;;;11.55;6.85;;;16.00;99.90;;;;;;5043564;28;20590;-81
2022/09/15 06:42:00;;;;;;;12.43;7.10;;;16.00;99.90;;;;;;5048187;28;20024;-81
2022/09/15 06:44:26;;;;;;;13.18;7.22;;;16.10;99.90;;;;;;5042685;28;20058;-81
2022/09/15 06:46:51;;;;;;;13.20;7.50;;;16.10;99.90;;;;;;5055222;28;21740;-81
2022/09/15 06:49:17;;;;;;;12.03;7.17;;;16.20;99.90;;;;;;5065349;28;20028;-81
2022/09/15 06:51:43;;;;;;;12.90;6.82;;;16.20;99.90;;;;;;5046396;28;20024;-81
2022/09/15 06:54:10;;;;;;;12.73;6.87;;;16.30;99.90;;;;;;5045201;28;20020;-81
2022/09/15 06:56:36;;;;;;;12.30;6.97;;;16.40;99.90;;;;;;5082412;28;20273;-81
2022/09/15 06:59:02;;;;;;;12.18;7.10;;;16.40;99.90;;;;;;5077136;28;20166;-80
2022/09/15 07:01:30;;;;;;;12.75;7.07;;;16.50;99.90;;;;;;5061842;28;20484;-81
2022/09/15 07:03:58;;;;;;;12.57;6.97;;;16.50;99.90;;;;;;5072973;28;20217;-81
2022/09/15 07:06:27;;;;;;;14.13;7.53;;;16.60;99.90;;;;;;5053559;28;20077;-81
2022/09/15 07:08:53;;;;;;;12.60;7.47;;;16.70;99.90;;;;;;5058401;28;21359;-81
2022/09/15 07:11:25;;;;;;;13.95;7.78;;;16.80;99.90;;;;;;5075329;28;20069;-81
2022/09/15 07:13:51;;;;;;;17.30;8.13;;;17.00;99.90;;;;;;5065540;28;20020;-81
2022/09/15 07:16:18;;;;;;;13.88;7.93;;;17.00;99.90;;;;;;5070423;28;20024;-81
2022/09/15 07:18:45;;;;;;;13.13;7.40;;;17.10;99.90;;;;;;5044705;28;20240;-81
2022/09/15 07:21:16;;;;;;;15.80;8.02;;;17.20;99.90;;;;;;5037842;28;20562;-80
2022/09/15 07:23:42;;;;;;;12.85;8.02;;;17.30;99.90;;;;;;5044798;28;20536;-81
2022/09/15 07:26:10;;;;;;;12.30;7.53;;;17.40;99.90;;;;;;5056289;28;20400;-81
2022/09/15 07:28:37;;;;;;;13.13;7.32;;;17.40;99.90;;;;;;5057532;28;20035;-80
2022/09/15 07:31:05;;;;;;;11.63;7.63;;;17.40;99.90;;;;;;5048238;28;20055;-81
2022/09/15 07:33:31;;;;;;;13.07;7.75;;;17.50;99.90;;;;;;5062336;28;20469;-81
2022/09/15 07:35:56;;;;;;;12.07;7.78;;;17.50;99.90;;;;;;5056653;28;20028;-81
2022/09/15 07:38:22;;;;;;;14.27;8.20;;;17.60;99.90;;;;;;5096300;27;20065;-81
2022/09/15 07:40:48;;;;;;;13.68;7.25;;;17.60;99.90;;;;;;5054653;28;20526;-81
2022/09/15 07:43:14;;;;;;;13.97;7.43;;;17.70;99.90;;;;;;5079730;28;20508;-81
2022/09/15 07:45:41;;;;;;;12.77;7.65;;;17.70;99.90;;;;;;5069589;28;20024;-81
2022/09/15 07:48:06;;;;;;;14.95;8.15;;;17.70;99.90;;;;;;5077164;28;20048;-81
2022/09/15 07:50:32;;;;;;;12.83;8.10;;;17.80;99.90;;;;;;5060532;28;20453;-81
2022/09/15 07:52:58;;;;;;;14.13;7.65;;;17.80;99.90;;;;;;5064755;28;20151;-81
2022/09/15 07:55:23;;;;;;;13.10;7.90;;;17.80;99.90;;;;;;5060840;28;20334;-81
2022/09/15 07:57:59;;;;;;;12.40;7.40;;;17.90;99.90;;;;;;5049611;28;20209;-81
2022/09/15 08:00:26;;;;;;;12.07;7.23;;;17.90;99.90;;;;;;5065434;28;20392;-81
2022/09/15 08:02:52;;;;;;;12.55;7.15;;;18.00;99.90;;;;;;5062191;28;20126;-81
2022/09/15 08:05:18;;;;;;;13.35;7.95;;;18.00;99.90;;;;;;5066924;28;20040;-81
2022/09/15 08:07:44;;;;;;;13.95;7.95;;;18.10;99.90;;;;;;5054473;28;20515;-81
2022/09/15 08:10:09;;;;;;;12.90;7.70;;;18.20;99.90;;;;;;5080497;28;20036;-81
2022/09/15 08:12:35;;;;;;;11.70;7.90;;;18.30;99.90;;;;;;5046549;28;20404;-81
2022/09/15 08:15:01;;;;;;;14.43;7.67;;;18.30;99.90;;;;;;5077231;28;20270;-81
2022/09/15 08:17:27;;;;;;;14.68;7.43;;;18.40;99.90;;;;;;5064278;28;20427;-81
2022/09/15 08:19:53;;;;;;;12.00;7.37;;;18.50;99.90;;;;;;5053241;28;20141;-82
2022/09/15 08:22:18;;;;;;;11.45;7.47;;;18.60;99.90;;;;;;5063116;28;20103;-81
2022/09/15 08:24:44;;;;;;;11.83;7.47;;;18.90;99.90;;;;;;5068664;28;20504;-81
2022/09/15 08:27:09;;;;;;;11.02;7.18;;;19.20;99.90;;;;;;5062515;28;20024;-81
2022/09/15 08:29:35;;;;;;;9.80;6.67;;;19.60;99.90;;;;;;5053742;28;20029;-80
2022/09/15 08:32:01;;;;;;;11.48;6.28;;;20.00;99.90;;;;;;5067048;28;20377;-82
2022/09/15 08:34:28;;;;;;;9.53;6.17;;;20.50;99.90;;;;;;5078392;28;20361;-81
2022/09/15 08:36:54;;;;;;;8.93;6.35;;;21.10;99.90;;;;;;5056066;28;20439;-81
2022/09/15 08:39:20;;;;;;;9.07;5.65;;;21.50;99.90;;;;;;5060993;28;20024;-81
2022/09/15 08:41:49;;;;;;;9.33;5.57;;;21.90;99.90;;;;;;5057992;28;20082;-80
2022/09/15 08:44:38;;;;;;;7.47;5.72;;;22.20;99.90;;;;;;5053464;28;20021;-80
2022/09/15 08:47:13;;;;;;;7.97;5.13;;;22.30;99.90;;;;;;5065214;28;20704;-81
2022/09/15 08:50:00;;;;;;;9.35;5.78;;;22.40;99.90;;;;;;5070915;28;20147;-81
2022/09/15 08:52:38;;;;;;;7.63;5.30;;;22.30;99.90;;;;;;5058215;28;20032;-82
2022/09/15 08:55:14;;;;;;;10.93;5.28;;;22.10;99.90;;;;;;5070984;28;20580;-81
2022/09/15 08:57:40;;;;;;;7.47;5.35;;;22.00;99.90;;;;;;5048992;28;20400;-81
2022/09/15 09:00:12;;;;;;;9.10;5.47;;;21.90;99.90;;;;;;5052700;28;20458;-81
2022/09/15 09:03:06;;;;;;;6.03;4.60;;;22.00;99.90;;;;;;5048008;28;20028;-81
2022/09/15 09:06:09;;;;;;;8.73;4.90;;;22.10;99.90;;;;;;5066667;28;20077;-81
2022/09/15 09:08:55;;;;;;;5.30;3.90;;;22.20;99.90;;;;;;5060229;28;20042;-81
2022/09/15 09:11:29;;;;;;;5.72;3.63;;;22.30;99.90;;;;;;5070186;28;20101;-81
2022/09/15 09:14:13;;;;;;;6.03;3.80;;;22.40;99.90;;;;;;5062096;28;25249;-81
2022/09/15 09:17:08;;;;;;;6.30;2.60;;;22.40;99.90;;;;;;5055425;28;20082;-81
2022/09/15 09:20:07;;;;;;;4.03;2.78;;;22.50;99.90;;;;;;5074020;28;20051;-81
2022/09/15 09:22:38;;;;;;;4.32;3.08;;;22.50;99.90;;;;;;5075731;28;20024;-83
2022/09/15 09:25:05;;;;;;;4.72;3.00;;;22.40;99.90;;;;;;5060219;28;20305;-81
2022/09/15 09:27:33;;;;;;;7.43;3.30;;;22.30;99.90;;;;;;5037315;28;20027;-81
2022/09/15 09:30:11;;;;;;;5.50;3.60;;;22.30;99.90;;;;;;5052975;28;20024;-81
2022/09/15 09:32:46;;;;;;;7.15;3.92;;;22.20;99.90;;;;;;5050785;28;20344;-81
2022/09/15 09:35:33;;;;;;;5.43;3.60;;;22.10;99.90;;;;;;5069316;28;20488;-79
2022/09/15 09:38:01;;;;;;;6.38;3.20;;;22.10;99.90;;;;;;5054063;28;20330;-81
2022/09/15 09:40:30;;;;;;;3.90;2.78;;;22.10;99.90;;;;;;5041652;28;20016;-80
2022/09/15 09:42:56;;;;;;;4.10;2.43;;;22.10;99.90;;;;;;5065266;28;20031;-81
2022/09/15 09:45:22;;;;;;;4.63;2.50;;;22.10;99.90;;;;;;5039269;28;20036;-81
2022/09/15 09:47:48;;;;;;;6.13;2.67;;;22.20;99.90;;;;;;5059566;28;20041;-80
2022/09/15 09:50:32;;;;;;;5.25;2.55;;;22.30;99.90;;;;;;5076539;27;20039;-80
2022/09/15 09:52:58;;;;;;;3.10;1.90;;;22.50;99.90;;;;;;5059790;28;20028;-81
2022/09/15 09:55:26;;;;;;;4.13;1.70;;;22.60;99.90;;;;;;5072110;28;20035;-80
2022/09/15 09:57:53;;;;;;;2.65;1.30;;;22.70;99.90;;;;;;5072894;28;20068;-81
2022/09/15 10:00:36;;;;;;;2.47;1.17;;;22.80;99.90;;;;;;5042125;28;20030;-80
2022/09/15 10:03:16;;;;;;;1.70;1.20;;;22.90;99.90;;;;;;5067492;28;20032;-81
2022/09/15 10:05:43;;;;;;;2.80;1.50;;;22.80;99.80;;;;;;5062579;28;20269;-81
2022/09/15 10:08:18;;;;;;;4.82;1.58;;;22.90;99.90;;;;;;5069740;28;20081;-80
2022/09/15 10:10:58;;;;;;;2.95;1.55;;;22.80;99.80;;;;;;5072314;28;20676;-80
2022/09/15 10:13:23;;;;;;;2.30;1.60;;;22.70;99.40;;;;;;5071837;28;20101;-81
2022/09/15 10:15:55;;;;;;;3.07;1.60;;;22.70;99.90;;;;;;5054419;28;20651;-81
2022/09/15 10:18:37;;;;;;;4.20;1.40;;;22.60;99.90;;;;;;5065354;28;20099;-81
2022/09/15 10:21:07;;;;;;;3.15;1.40;;;22.60;99.50;;;;;;5069193;28;20020;-81
2022/09/15 10:23:33;;;;;;;2.70;1.35;;;22.50;99.90;;;;;;5069552;28;20217;-80
2022/09/15 10:26:14;;;;;;;3.13;1.20;;;22.40;99.90;;;;;;5073872;28;20032;-80
2022/09/15 10:28:40;;;;;;;1.70;1.27;;;22.40;99.00;;;;;;5077773;28;20212;-81
2022/09/15 10:31:06;;;;;;;3.63;1.40;;;22.40;99.90;;;;;;5057769;28;20070;-81
2022/09/15 10:33:38;;;;;;;3.28;1.50;;;22.30;99.90;;;;;;5062593;28;20229;-81
2022/09/15 10:36:30;;;;;;;3.53;1.57;;;22.40;99.90;;;;;;5058584;28;20597;-81
2022/09/15 10:39:14;;;;;;;3.17;1.65;;;22.50;99.90;;;;;;5055148;28;20491;-81
2022/09/15 10:41:48;;;;;;;3.95;1.50;;;22.60;99.90;;;;;;5044769;28;20240;-82
2022/09/15 10:44:35;;;;;;;3.17;1.50;;;22.70;99.90;;;;;;5069125;28;20161;-80
2022/09/15 10:47:19;;;;;;;2.10;1.45;;;22.80;99.90;;;;;;5051526;28;20055;-82
2022/09/15 10:49:51;;;;;;;4.30;1.50;;;22.80;99.60;;;;;;5045257;28;20024;-81
2022/09/15 10:52:35;;;;;;;3.38;1.50;;;22.70;99.90;;;;;;5053064;28;20322;-81
2022/09/15 10:55:20;;;;;;;2.28;1.40;;;22.70;99.90;;;;;;5071405;28;20194;-81
2022/09/15 10:58:01;;;;;;;3.47;1.50;;;22.60;99.90;;;;;;5072050;28;20407;-81
2022/09/15 11:00:46;;;;;;;2.85;1.40;;;22.50;98.20;;;;;;5063453;28;20038;-81
2022/09/15 11:03:32;;;;;;;2.80;1.40;;;22.40;98.40;;;;;;5053563;28;20032;-81
2022/09/15 11:06:12;;;;;;;3.90;1.40;;;22.20;97.90;;;;;;5075852;28;20437;-81
2022/09/15 11:09:02;;;;;;;1.58;1.20;;;22.20;99.90;;;;;;5070778;28;20248;-81
2022/09/15 11:11:43;;;;;;;3.42;1.50;;;22.00;98.30;;;;;;5074429;28;20046;-81
2022/09/15 11:14:18;;;;;;;2.78;1.30;;;22.00;99.20;;;;;;5046571;28;20028;-80
2022/09/15 11:16:58;;;;;;;2.20;1.20;;;21.90;99.90;;;;;;5074710;28;20028;-81
2022/09/15 11:19:24;;;;;;;1.60;1.20;;;21.90;99.90;;;;;;5042710;28;20119;-81
2022/09/15 11:21:56;;;;;;;2.50;1.60;;;21.80;99.90;;;;;;5043045;28;20034;-81
2022/09/15 11:24:34;;;;;;;2.63;1.50;;;21.80;99.90;;;;;;5053669;28;20032;-81
2022/09/15 11:27:33;;;;;;;2.45;1.50;;;21.80;99.90;;;;;;5051775;28;20029;-81
2022/09/15 11:30:03;;;;;;;4.47;1.70;;;21.80;99.00;;;;;;5053949;28;20073;-82
2022/09/15 11:32:53;;;;;;;3.70;1.50;;;21.80;99.90;;;;;;5051607;28;20197;-81
2022/09/15 11:35:47;;;;;;;2.45;1.40;;;21.80;99.10;;;;;;5064158;28;20082;-80
2022/09/15 11:38:33;;;;;;;4.13;1.30;;;21.70;98.00;;;;;;5060611;28;20021;-80
2022/09/15 11:41:01;;;;;;;3.63;1.00;;;21.60;98.20;;;;;;5063121;28;20048;-80
2022/09/15 11:44:05;;;;;;;3.25;1.00;;;21.50;98.90;;;;;;5073249;28;20044;-80
2022/09/15 11:46:58;;;;;;;2.63;0.98;;;21.30;97.10;;;;;;5067127;28;20089;-80
2022/09/15 11:49:55;;;;;;;2.75;0.80;;;21.20;98.50;;;;;;5043549;28;20043;-80
2022/09/15 11:52:53;;;;;;;2.27;0.90;;;21.20;99.70;;;;;;5067095;28;20492;-81
2022/09/15 11:55:33;;;;;;;3.25;0.90;;;21.10;99.10;;;;;;5059809;28;20090;-80
2022/09/15 11:58:22;;;;;;;1.17;0.82;;;21.10;99.90;;;;;;5048608;28;20024;-80
2022/09/15 12:01:13;;;;;;;3.00;0.82;;;21.20;99.60;;;;;;5070958;28;20070;-79
2022/09/15 12:03:55;;;;;;;1.42;1.10;;;21.20;99.90;;;;;;5051081;28;20312;-80
2022/09/15 12:06:40;;;;;;;1.80;0.80;;;21.20;99.90;;;;;;5051104;28;20524;-80
2022/09/15 12:09:11;;;;;;;1.42;0.80;;;21.20;99.90;;;;;;5066238;28;20056;-79
2022/09/15 12:11:49;;;;;;;1.73;0.80;;;21.20;99.90;;;;;;5055568;28;20149;-80
2022/09/15 12:14:35;;;;;;;1.83;0.90;;;21.20;99.20;;;;;;5069095;28;20388;-81
2022/09/15 12:17:04;;;;;;;2.72;0.77;;;21.20;98.60;;;;;;5069256;28;20140;-81
2022/09/15 12:19:42;;;;;;;1.67;0.80;;;21.20;99.90;;;;;;5059798;28;20228;-81
2022/09/15 12:22:15;;;;;;;1.75;1.00;;;21.20;99.90;;;;;;5068281;28;20347;-81
2022/09/15 12:24:59;;;;;;;4.20;0.80;;;21.30;99.90;;;;;;5055595;28;20102;-81
2022/09/15 12:27:25;;;;;;;2.65;0.90;;;21.30;99.60;;;;;;5070132;28;20036;-81
2022/09/15 12:29:54;;;;;;;1.90;0.75;;;21.30;99.90;;;;;;5054970;28;20049;-81
2022/09/15 12:32:27;;;;;;;1.27;0.70;;;21.40;99.90;;;;;;5059728;28;20097;-81
2022/09/15 12:35:14;;;;;;;3.38;0.90;;;21.50;99.90;;;;;;5056315;28;20620;-80
2022/09/15 12:37:55;;;;;;;1.92;0.90;;;21.60;99.90;;;;;;5071059;28;20096;-81
2022/09/15 12:40:34;;;;;;;1.02;0.80;;;21.60;99.90;;;;;;5055254;28;20029;-80
2022/09/15 12:43:02;;;;;;;2.35;0.90;;;21.80;99.90;;;;;;5076714;28;20032;-81
2022/09/15 12:45:32;;;;;;;2.13;0.80;;;22.00;99.90;;;;;;5071933;28;20493;-81
2022/09/15 12:48:11;;;;;;;2.22;0.90;;;22.20;99.90;;;;;;5069460;28;20044;-81
2022/09/15 12:50:39;;;;;;;2.35;0.80;;;22.50;99.90;;;;;;5055662;28;20810;-80
2022/09/15 12:53:16;;;;;;;2.42;0.82;;;22.80;99.90;;;;;;5059994;28;20511;-81
2022/09/15 12:55:54;;;;;;;3.42;0.85;;;23.10;99.90;;;;;;5057244;28;20179;-81
2022/09/15 12:58:38;;;;;;;2.23;0.90;;;23.70;99.90;;;;;;5061104;28;20531;-81
2022/09/15 13:01:21;;;;;;;1.05;0.70;;;24.20;99.90;;;;;;5063042;28;20116;-81
2022/09/15 13:03:49;;;;;;;4.22;0.90;;;24.80;99.90;;;;;;5099517;27;20259;-82
2022/09/15 13:06:22;;;;;;;2.88;0.80;;;25.30;99.90;;;;;;5066864;28;20040;-81
2022/09/15 13:09:26;;;;;;;1.92;0.80;;;25.80;99.90;;;;;;5059640;28;20184;-82